Time;durP1;ratioP1;P1;durP2;ratioP2;P2;SDS_P1;SDS_P2;PMS_P1;PMS_P2;Temp;Humidity;BMP_temperature;BMP_pressure;BME280_temperature;BME280_humidity;BME280_pressure;Samples;Min_cycle;Max_cycle;Signal;HPM_P1;HPM_P2
2023/04/30 00:00:23;;;;;;;10.88;5.88;;;7.30;99.90;;;;;;4989757;28;20049;-78
2023/04/30 00:02:49;;;;;;;8.45;5.00;;;7.20;99.90;;;;;;4973693;28;20105;-78
2023/04/30 00:05:15;;;;;;;9.05;5.55;;;7.20;99.90;;;;;;4972942;28;20047;-78
2023/04/30 00:07:41;;;;;;;11.73;6.72;;;7.20;99.90;;;;;;4989812;28;20086;-78
2023/04/30 00:10:10;;;;;;;12.80;6.75;;;7.20;99.90;;;;;;4973380;28;20043;-78
2023/04/30 00:12:36;;;;;;;13.88;8.15;;;7.20;99.90;;;;;;4973305;28;20390;-78
2023/04/30 00:15:02;;;;;;;15.63;7.82;;;7.00;99.90;;;;;;4989785;28;20059;-78
2023/04/30 00:17:28;;;;;;;10.07;6.03;;;6.90;99.90;;;;;;4989826;28;20395;-78
2023/04/30 00:19:54;;;;;;;12.05;6.45;;;6.80;99.90;;;;;;4973453;28;20051;-78
2023/04/30 00:22:20;;;;;;;14.38;7.30;;;6.80;99.90;;;;;;4989443;28;20054;-78
2023/04/30 00:24:45;;;;;;;10.40;6.22;;;6.80;99.90;;;;;;4989238;28;20503;-78
2023/04/30 00:27:11;;;;;;;12.57;6.63;;;6.80;99.90;;;;;;4989424;28;20050;-78
2023/04/30 00:29:37;;;;;;;12.40;6.55;;;6.80;99.90;;;;;;4973575;28;20047;-78
2023/04/30 00:32:03;;;;;;;11.10;6.45;;;6.80;99.90;;;;;;4989618;28;20390;-78
2023/04/30 00:34:29;;;;;;;12.15;6.50;;;6.80;99.90;;;;;;4973447;28;20038;-78
2023/04/30 00:36:55;;;;;;;9.40;6.20;;;6.70;99.90;;;;;;4989469;28;20372;-78
2023/04/30 00:39:20;;;;;;;10.73;6.15;;;6.70;99.90;;;;;;4976780;28;20093;-78
2023/04/30 00:41:46;;;;;;;11.38;6.28;;;6.70;99.90;;;;;;4992922;28;20494;-79
2023/04/30 00:44:12;;;;;;;9.95;6.22;;;6.80;99.90;;;;;;4977793;28;20053;-78
2023/04/30 00:46:38;;;;;;;11.25;5.95;;;6.90;99.90;;;;;;4992915;28;20067;-78
2023/04/30 00:49:03;;;;;;;9.27;5.65;;;6.90;99.90;;;;;;4976653;28;20047;-78
2023/04/30 00:51:34;;;;;;;9.15;5.70;;;6.80;99.90;;;;;;4992870;28;20047;-78
2023/04/30 00:54:02;;;;;;;9.40;5.85;;;6.80;99.90;;;;;;4992283;28;20059;-78
2023/04/30 00:56:30;;;;;;;12.07;5.88;;;6.80;99.90;;;;;;4992765;28;20176;-78
2023/04/30 00:58:56;;;;;;;9.80;5.65;;;6.80;99.90;;;;;;4992967;28;20054;-78
2023/04/30 01:01:27;;;;;;;11.63;7.45;;;6.80;99.90;;;;;;4992412;28;20046;-78
2023/04/30 01:03:54;;;;;;;13.93;6.57;;;6.80;99.90;;;;;;4992742;28;20058;-78
2023/04/30 01:06:19;;;;;;;12.30;6.47;;;6.70;99.90;;;;;;4992261;28;20125;-78
2023/04/30 01:08:46;;;;;;;11.60;5.85;;;6.70;99.90;;;;;;4992071;28;20451;-78
2023/04/30 01:11:27;;;;;;;9.02;5.88;;;6.70;99.90;;;;;;4975987;28;20053;-78
2023/04/30 01:13:59;;;;;;;12.75;6.30;;;6.70;99.90;;;;;;4976376;28;20047;-77
2023/04/30 01:16:29;;;;;;;13.45;7.63;;;6.70;99.90;;;;;;4992517;28;20091;-77
2023/04/30 01:19:10;;;;;;;14.40;8.82;;;6.70;99.90;;;;;;4992572;28;20051;-77
2023/04/30 01:21:40;;;;;;;12.15;7.95;;;6.60;99.90;;;;;;4992309;28;20526;-77
2023/04/30 01:24:31;;;;;;;13.35;8.55;;;6.50;99.90;;;;;;4992232;28;20050;-78
2023/04/30 01:27:12;;;;;;;11.95;6.93;;;6.40;99.90;;;;;;4992165;28;20495;-78
2023/04/30 01:29:41;;;;;;;10.63;6.80;;;6.30;99.90;;;;;;4992425;28;20047;-77
2023/04/30 01:32:06;;;;;;;11.45;6.38;;;6.40;99.90;;;;;;4992318;28;20510;-77
2023/04/30 01:34:32;;;;;;;9.93;6.60;;;6.40;99.90;;;;;;4992375;28;20046;-77
2023/04/30 01:37:18;;;;;;;10.70;6.45;;;6.40;99.90;;;;;;4992179;28;20058;-77
2023/04/30 01:40:07;;;;;;;11.35;7.30;;;6.40;99.90;;;;;;4992263;28;20055;-77
2023/04/30 01:42:44;;;;;;;12.70;8.00;;;6.40;99.90;;;;;;4992109;28;20376;-77
2023/04/30 01:45:40;;;;;;;13.20;7.80;;;6.30;99.90;;;;;;4992061;28;20046;-77
2023/04/30 01:48:11;;;;;;;9.98;7.00;;;6.30;99.90;;;;;;4975707;28;20165;-77
2023/04/30 01:50:46;;;;;;;11.40;7.55;;;6.20;99.90;;;;;;4992151;28;20138;-77
2023/04/30 01:53:27;;;;;;;10.27;7.18;;;6.30;99.90;;;;;;4975812;28;20065;-77
2023/04/30 01:56:01;;;;;;;10.80;6.85;;;6.20;99.90;;;;;;4991910;28;20116;-77
2023/04/30 01:58:28;;;;;;;11.80;7.13;;;6.20;99.90;;;;;;4975451;28;20525;-77
2023/04/30 02:00:54;;;;;;;10.20;6.47;;;6.20;99.90;;;;;;4991817;28;20046;-78
2023/04/30 02:03:20;;;;;;;11.48;6.50;;;6.20;99.90;;;;;;4991901;28;20506;-77
2023/04/30 02:05:47;;;;;;;9.45;6.53;;;6.10;99.90;;;;;;4991555;28;20490;-77
2023/04/30 02:08:13;;;;;;;12.45;6.78;;;6.10;99.90;;;;;;4991344;28;20403;-77
2023/04/30 02:10:38;;;;;;;10.60;6.68;;;6.10;99.90;;;;;;4991749;28;20047;-78
2023/04/30 02:13:04;;;;;;;11.65;6.80;;;6.10;99.90;;;;;;4975311;28;20046;-77
2023/04/30 02:15:30;;;;;;;10.45;6.65;;;6.10;99.90;;;;;;4991215;28;20051;-78
2023/04/30 02:17:56;;;;;;;12.57;7.25;;;6.10;99.90;;;;;;4975336;28;20097;-77
2023/04/30 02:20:21;;;;;;;11.35;7.30;;;6.10;99.90;;;;;;4991500;28;20050;-77
2023/04/30 02:22:47;;;;;;;10.18;6.80;;;5.90;99.90;;;;;;4991207;28;20054;-77
2023/04/30 02:25:13;;;;;;;12.43;7.50;;;5.90;99.90;;;;;;4991202;28;20082;-77
2023/04/30 02:27:39;;;;;;;12.45;7.28;;;5.90;99.90;;;;;;4991249;28;20137;-77
2023/04/30 02:30:05;;;;;;;11.23;7.60;;;5.90;99.90;;;;;;4974837;28;20051;-77
2023/04/30 02:32:31;;;;;;;13.77;8.35;;;5.90;99.90;;;;;;4991030;28;20105;-77
2023/04/30 02:34:57;;;;;;;10.10;6.78;;;5.80;99.90;;;;;;4974987;28;20054;-77
2023/04/30 02:37:23;;;;;;;10.38;6.55;;;5.80;99.90;;;;;;4990673;28;20451;-77
2023/04/30 02:39:49;;;;;;;10.55;6.65;;;5.80;99.90;;;;;;4990886;28;20043;-77
2023/04/30 02:42:15;;;;;;;10.02;6.53;;;5.70;99.90;;;;;;4990498;28;20180;-77
2023/04/30 02:44:41;;;;;;;9.88;6.63;;;5.80;99.90;;;;;;4990700;28;20126;-77
2023/04/30 02:47:07;;;;;;;9.95;6.43;;;5.80;99.90;;;;;;4958239;28;20050;-77
2023/04/30 02:49:32;;;;;;;9.88;6.72;;;5.80;99.90;;;;;;5007094;28;20054;-76
2023/04/30 02:51:58;;;;;;;11.32;6.75;;;5.80;99.90;;;;;;4990446;28;20495;-77
2023/04/30 02:54:24;;;;;;;10.30;6.97;;;5.80;99.90;;;;;;4974422;28;20059;-77
2023/04/30 02:56:50;;;;;;;11.10;6.70;;;5.70;99.90;;;;;;4990411;28;20140;-77
2023/04/30 02:59:15;;;;;;;10.27;6.43;;;5.70;99.90;;;;;;4990761;28;20053;-77
2023/04/30 03:01:41;;;;;;;11.10;6.80;;;5.70;99.90;;;;;;4990309;28;20447;-77
2023/04/30 03:04:07;;;;;;;11.05;6.47;;;5.80;99.90;;;;;;4990412;28;20415;-77
2023/04/30 03:06:35;;;;;;;11.23;6.35;;;5.70;99.90;;;;;;4990014;28;20054;-77
2023/04/30 03:09:01;;;;;;;9.25;6.40;;;5.70;99.90;;;;;;4990650;28;20051;-77
2023/04/30 03:11:27;;;;;;;8.75;6.22;;;5.70;99.90;;;;;;4990488;28;20399;-77
2023/04/30 03:13:53;;;;;;;10.80;6.63;;;5.70;99.90;;;;;;4974122;28;20076;-77
2023/04/30 03:16:19;;;;;;;10.07;7.43;;;5.70;99.90;;;;;;4990151;28;20043;-77
2023/04/30 03:18:47;;;;;;;10.75;7.25;;;5.70;99.90;;;;;;4990367;28;20057;-77
2023/04/30 03:21:12;;;;;;;12.15;8.52;;;5.60;99.90;;;;;;4990167;28;20047;-77
2023/04/30 03:23:38;;;;;;;11.27;7.60;;;5.50;99.90;;;;;;4990285;28;20046;-78
2023/04/30 03:26:04;;;;;;;16.95;12.13;;;5.50;99.90;;;;;;4973719;28;20059;-78
2023/04/30 03:28:30;;;;;;;14.60;9.90;;;5.40;99.90;;;;;;4990222;28;20399;-77
2023/04/30 03:30:56;;;;;;;17.30;10.98;;;5.20;99.90;;;;;;4973480;28;20050;-77
2023/04/30 03:33:22;;;;;;;12.73;7.97;;;5.10;99.90;;;;;;4990146;28;20145;-77
2023/04/30 03:35:49;;;;;;;9.77;7.35;;;5.10;99.90;;;;;;4990012;28;20478;-77
2023/04/30 03:38:15;;;;;;;10.80;7.55;;;5.10;99.90;;;;;;4973887;28;20054;-77
2023/04/30 03:40:40;;;;;;;11.63;7.43;;;5.20;99.90;;;;;;4990168;28;20387;-77
2023/04/30 03:43:06;;;;;;;11.75;7.38;;;5.20;99.90;;;;;;4973803;28;20062;-77
2023/04/30 03:45:32;;;;;;;10.10;7.15;;;5.20;99.90;;;;;;4989638;28;20546;-77
2023/04/30 03:47:58;;;;;;;12.95;7.97;;;5.20;99.90;;;;;;4989472;28;20046;-77
2023/04/30 03:50:26;;;;;;;10.40;8.07;;;5.20;99.90;;;;;;4990092;28;20053;-77
2023/04/30 03:52:52;;;;;;;10.80;7.32;;;5.20;99.90;;;;;;4990016;28;20467;-77
2023/04/30 03:55:18;;;;;;;11.18;7.78;;;5.20;99.90;;;;;;4989294;28;20066;-77
2023/04/30 03:57:46;;;;;;;10.75;7.03;;;5.20;99.90;;;;;;4989939;28;20050;-76
2023/04/30 04:00:12;;;;;;;11.65;7.70;;;5.20;99.90;;;;;;4989657;28;20050;-77
2023/04/30 04:02:39;;;;;;;10.57;7.75;;;5.20;99.90;;;;;;4989882;28;20047;-77
2023/04/30 04:05:05;;;;;;;13.18;8.32;;;5.10;99.90;;;;;;4973480;28;20047;-77
2023/04/30 04:07:30;;;;;;;10.57;7.53;;;5.10;99.90;;;;;;4989874;28;20051;-77
2023/04/30 04:09:56;;;;;;;9.45;7.55;;;5.00;99.90;;;;;;4989841;28;20477;-77
2023/04/30 04:12:22;;;;;;;9.70;7.65;;;4.90;99.90;;;;;;4990852;28;20134;-77
2023/04/30 04:14:48;;;;;;;10.35;7.07;;;4.80;99.90;;;;;;4993438;28;20479;-77
2023/04/30 04:17:16;;;;;;;9.98;6.85;;;4.70;99.90;;;;;;4993442;28;20054;-77
2023/04/30 04:19:41;;;;;;;10.27;6.95;;;4.70;99.90;;;;;;4993160;28;20042;-77
2023/04/30 04:22:07;;;;;;;10.63;6.97;;;4.70;99.90;;;;;;4977571;28;20133;-77
2023/04/30 04:24:34;;;;;;;10.90;8.00;;;4.80;99.90;;;;;;4993339;28;20053;-77
2023/04/30 04:27:01;;;;;;;13.55;9.90;;;4.90;99.90;;;;;;4960976;28;20051;-77
2023/04/30 04:29:27;;;;;;;14.90;9.68;;;4.90;99.90;;;;;;4977332;28;20058;-77
2023/04/30 04:31:54;;;;;;;12.43;10.07;;;4.80;99.90;;;;;;4977208;28;20066;-77
2023/04/30 04:34:20;;;;;;;39.38;14.90;;;4.70;99.90;;;;;;4977241;28;20051;-77
2023/04/30 04:36:46;;;;;;;10.82;8.20;;;4.70;99.90;;;;;;4993547;28;20043;-77
2023/04/30 04:39:12;;;;;;;14.10;11.15;;;4.60;99.90;;;;;;4993280;28;20058;-77
2023/04/30 04:41:38;;;;;;;18.17;13.60;;;4.60;99.90;;;;;;4993339;28;20051;-78
2023/04/30 04:44:04;;;;;;;15.38;11.48;;;4.50;99.90;;;;;;4993180;28;20047;-77
2023/04/30 04:46:30;;;;;;;15.35;12.23;;;4.50;99.90;;;;;;4992819;28;20047;-77
2023/04/30 04:48:57;;;;;;;12.50;10.57;;;4.50;99.90;;;;;;4992735;28;20097;-77
2023/04/30 04:51:23;;;;;;;12.30;10.43;;;4.60;99.90;;;;;;4993034;28;20051;-77
2023/04/30 04:53:49;;;;;;;15.40;11.15;;;4.60;99.90;;;;;;4992738;28;20057;-78
2023/04/30 04:56:15;;;;;;;10.32;8.43;;;4.70;99.90;;;;;;4992618;28;20051;-77
2023/04/30 04:58:43;;;;;;;10.15;8.43;;;4.70;99.90;;;;;;4976158;28;20062;-78
2023/04/30 05:01:09;;;;;;;9.50;7.47;;;4.90;99.90;;;;;;4976836;28;20047;-77
2023/04/30 05:03:37;;;;;;;18.05;11.48;;;5.00;99.90;;;;;;4992921;28;20051;-77
2023/04/30 05:06:04;;;;;;;14.48;10.75;;;5.20;99.90;;;;;;4992687;28;20053;-77
2023/04/30 05:08:32;;;;;;;20.60;14.27;;;5.30;99.90;;;;;;4992921;28;20043;-77
2023/04/30 05:10:58;;;;;;;16.60;12.25;;;5.40;99.90;;;;;;4992483;28;20550;-77
2023/04/30 05:13:24;;;;;;;12.32;9.52;;;5.40;99.90;;;;;;4976418;28;20137;-77
2023/04/30 05:15:51;;;;;;;16.55;12.00;;;5.50;99.90;;;;;;4976509;28;20047;-78
2023/04/30 05:18:17;;;;;;;18.83;14.63;;;5.60;99.90;;;;;;4992514;28;20047;-78
2023/04/30 05:20:43;;;;;;;20.30;13.82;;;5.70;99.90;;;;;;4992594;28;20053;-78
2023/04/30 05:23:08;;;;;;;16.02;14.00;;;5.90;99.90;;;;;;4991919;28;20089;-78
2023/04/30 05:25:38;;;;;;;22.35;15.98;;;6.40;99.90;;;;;;4992446;28;20043;-78
2023/04/30 05:28:05;;;;;;;25.92;14.55;;;7.00;99.90;;;;;;4992468;28;20218;-78
2023/04/30 05:30:31;;;;;;;17.05;12.57;;;7.30;99.90;;;;;;4992399;28;20049;-78
2023/04/30 05:32:57;;;;;;;17.42;10.77;;;8.00;99.90;;;;;;4991924;28;20399;-78
2023/04/30 05:35:23;;;;;;;19.70;9.88;;;8.30;99.90;;;;;;4962985;28;20056;-78
2023/04/30 05:37:48;;;;;;;15.40;9.80;;;8.50;99.90;;;;;;4974347;28;20069;-78
2023/04/30 05:40:14;;;;;;;15.63;10.95;;;8.40;99.90;;;;;;4992301;28;20043;-78
2023/04/30 05:42:42;;;;;;;15.05;9.95;;;8.70;99.90;;;;;;4991853;28;20486;-79
2023/04/30 05:45:11;;;;;;;17.08;9.20;;;9.30;99.90;;;;;;4975800;28;20097;-78
2023/04/30 05:47:37;;;;;;;14.35;8.60;;;10.00;99.90;;;;;;4992073;28;20057;-79
2023/04/30 05:50:03;;;;;;;13.75;8.02;;;10.30;99.90;;;;;;4975441;28;20043;-79
2023/04/30 05:52:28;;;;;;;14.10;7.50;;;10.80;99.90;;;;;;4992092;28;20042;-79
2023/04/30 05:54:54;;;;;;;14.80;6.95;;;11.60;99.90;;;;;;4991722;28;20055;-79
2023/04/30 05:57:20;;;;;;;13.60;6.68;;;12.10;99.90;;;;;;4991694;28;20141;-79
2023/04/30 05:59:46;;;;;;;10.25;5.55;;;12.10;99.90;;;;;;4991804;28;20047;-80
2023/04/30 06:02:12;;;;;;;11.48;5.70;;;12.50;99.90;;;;;;4974942;28;20062;-80
2023/04/30 06:04:37;;;;;;;14.20;5.82;;;12.80;99.90;;;;;;4991938;28;20138;-80
2023/04/30 06:07:03;;;;;;;10.98;5.25;;;13.20;99.90;;;;;;4991790;28;20042;-80
2023/04/30 06:09:29;;;;;;;11.65;5.40;;;13.70;99.90;;;;;;4992265;28;20506;-81
2023/04/30 06:11:54;;;;;;;11.02;5.18;;;13.60;99.90;;;;;;4991294;28;20050;-81
2023/04/30 06:14:21;;;;;;;8.75;4.45;;;13.40;99.90;;;;;;4991399;28;20051;-80
2023/04/30 06:16:48;;;;;;;9.90;4.68;;;13.40;99.90;;;;;;5007659;28;20086;-81
2023/04/30 06:19:14;;;;;;;11.93;4.35;;;13.60;99.90;;;;;;4991428;28;20055;-80
2023/04/30 06:21:42;;;;;;;9.98;4.05;;;13.40;99.90;;;;;;4991064;28;20051;-81
2023/04/30 06:24:08;;;;;;;10.65;4.20;;;14.00;99.90;;;;;;4991395;28;20053;-81
2023/04/30 06:26:34;;;;;;;9.27;4.65;;;14.60;99.90;;;;;;4990721;28;20046;-81
2023/04/30 06:28:59;;;;;;;8.30;4.03;;;14.40;99.90;;;;;;5007626;28;20051;-81
2023/04/30 06:31:25;;;;;;;9.50;3.85;;;14.20;99.90;;;;;;4991137;28;20047;-82
2023/04/30 06:33:54;;;;;;;10.27;3.80;;;14.50;99.90;;;;;;4991277;28;20062;-82
2023/04/30 06:36:20;;;;;;;11.00;4.00;;;15.20;99.90;;;;;;4958120;28;20050;-82
2023/04/30 06:38:46;;;;;;;10.38;3.58;;;15.30;99.50;;;;;;4991066;28;20058;-82
2023/04/30 06:41:12;;;;;;;8.88;3.30;;;15.60;99.30;;;;;;4975020;28;20094;-81
2023/04/30 06:43:38;;;;;;;9.32;2.90;;;15.50;96.80;;;;;;4974346;28;20047;-81
2023/04/30 06:46:05;;;;;;;11.70;2.60;;;15.00;94.10;;;;;;4990875;28;20051;-81
2023/04/30 06:48:31;;;;;;;9.52;2.63;;;14.40;91.60;;;;;;5007386;28;20047;-82
2023/04/30 06:50:57;;;;;;;11.32;3.38;;;14.30;95.70;;;;;;4990857;28;20505;-82
2023/04/30 06:53:23;;;;;;;12.85;3.42;;;13.90;94.40;;;;;;4974431;28;20067;-82
2023/04/30 06:55:49;;;;;;;13.80;3.60;;;13.70;95.60;;;;;;4974106;28;20415;-82
2023/04/30 06:58:15;;;;;;;8.75;2.78;;;13.40;97.90;;;;;;4990878;28;20050;-81
2023/04/30 07:00:41;;;;;;;10.45;3.05;;;13.20;98.80;;;;;;4990762;28;20369;-81
2023/04/30 07:03:10;;;;;;;9.00;2.72;;;13.00;98.40;;;;;;4990786;28;20051;-81
2023/04/30 07:05:35;;;;;;;9.95;3.33;;;13.00;99.80;;;;;;4958241;28;20039;-81
2023/04/30 07:08:02;;;;;;;8.77;2.65;;;12.40;99.90;;;;;;4974156;28;20061;-81
2023/04/30 07:10:29;;;;;;;13.57;3.15;;;12.20;99.90;;;;;;4974297;28;20141;-81
2023/04/30 07:12:55;;;;;;;11.55;3.50;;;12.00;99.90;;;;;;4974229;28;20047;-80
2023/04/30 07:15:21;;;;;;;11.32;3.20;;;11.80;99.90;;;;;;4974009;28;20054;-80
2023/04/30 07:17:47;;;;;;;9.25;3.00;;;11.70;99.90;;;;;;4990140;28;20444;-80
2023/04/30 07:20:13;;;;;;;9.63;3.30;;;11.60;99.90;;;;;;4990445;28;20053;-80
2023/04/30 07:22:40;;;;;;;10.43;2.95;;;11.80;99.90;;;;;;4973805;28;20517;-83
2023/04/30 07:25:07;;;;;;;10.68;2.90;;;12.10;99.90;;;;;;4989817;28;20189;-83
2023/04/30 07:27:32;;;;;;;12.32;3.42;;;12.60;99.90;;;;;;4990212;28;20051;-82
2023/04/30 07:29:58;;;;;;;9.25;2.63;;;12.70;99.90;;;;;;4990256;28;20122;-82
2023/04/30 07:32:26;;;;;;;12.30;3.42;;;12.60;99.90;;;;;;4958159;28;20434;-82
2023/04/30 07:34:52;;;;;;;13.77;3.35;;;12.90;99.90;;;;;;4990031;28;20089;-83
2023/04/30 07:37:19;;;;;;;10.95;3.10;;;13.00;99.90;;;;;;4973717;28;20121;-83
2023/04/30 07:39:44;;;;;;;9.68;2.80;;;13.10;99.90;;;;;;4989913;28;20376;-82
2023/04/30 07:42:10;;;;;;;10.57;3.30;;;13.20;99.90;;;;;;4989795;28;20058;-82
2023/04/30 07:44:36;;;;;;;12.52;3.30;;;13.40;99.90;;;;;;4973834;28;20045;-83
2023/04/30 07:47:02;;;;;;;10.25;3.10;;;13.80;99.90;;;;;;4989887;28;20050;-83
2023/04/30 07:49:28;;;;;;;13.70;3.58;;;14.00;97.30;;;;;;4990123;28;20372;-83
2023/04/30 07:51:56;;;;;;;11.00;3.45;;;13.80;97.80;;;;;;4990017;28;20047;-83
2023/04/30 07:54:22;;;;;;;11.38;3.15;;;14.00;98.70;;;;;;4989706;28;20050;-83
2023/04/30 07:56:48;;;;;;;11.15;2.90;;;14.10;96.20;;;;;;4990044;28;20058;-83
2023/04/30 07:59:16;;;;;;;10.13;3.05;;;14.50;95.80;;;;;;4990000;28;20061;-83
2023/04/30 08:01:42;;;;;;;14.57;3.38;;;14.80;95.70;;;;;;4973815;28;20042;-82
2023/04/30 08:04:08;;;;;;;14.15;3.00;;;13.70;94.60;;;;;;5006438;28;20073;-82
2023/04/30 08:06:34;;;;;;;10.00;2.95;;;14.00;96.50;;;;;;4989531;28;20058;-82
2023/04/30 08:08:59;;;;;;;9.82;3.08;;;14.00;97.10;;;;;;4973711;28;20053;-82
2023/04/30 08:11:26;;;;;;;11.65;3.10;;;14.50;96.00;;;;;;4989554;28;20043;-82
2023/04/30 08:13:52;;;;;;;12.60;3.20;;;14.70;94.70;;;;;;4989691;28;20047;-82
2023/04/30 08:16:18;;;;;;;12.32;3.20;;;14.30;94.80;;;;;;4989499;28;20054;-82
2023/04/30 08:18:45;;;;;;;10.93;3.35;;;14.50;93.30;;;;;;4989770;28;20450;-82
2023/04/30 08:21:16;;;;;;;12.05;3.20;;;14.20;94.80;;;;;;4989440;28;20483;-82
2023/04/30 08:23:42;;;;;;;9.50;3.10;;;14.20;95.60;;;;;;4989566;28;20057;-83
2023/04/30 08:26:08;;;;;;;11.23;3.00;;;14.60;94.60;;;;;;5005735;28;20046;-83
2023/04/30 08:28:35;;;;;;;10.48;2.97;;;14.60;93.90;;;;;;4989621;28;20061;-82
2023/04/30 08:31:01;;;;;;;9.23;2.95;;;14.50;93.80;;;;;;4956851;28;20047;-83
2023/04/30 08:33:26;;;;;;;12.93;3.03;;;14.90;95.00;;;;;;4989136;28;20050;-82
2023/04/30 08:35:53;;;;;;;8.35;2.70;;;15.30;91.70;;;;;;4973489;28;20090;-82
2023/04/30 08:38:18;;;;;;;11.95;3.00;;;15.60;93.50;;;;;;4989505;28;20094;-82
2023/04/30 08:40:54;;;;;;;9.27;2.75;;;15.90;92.50;;;;;;4973325;28;20138;-82
2023/04/30 08:43:21;;;;;;;10.95;3.03;;;16.10;91.20;;;;;;4989501;28;20051;-82
2023/04/30 08:45:49;;;;;;;10.98;2.83;;;15.80;90.30;;;;;;4989177;28;20130;-83
2023/04/30 08:48:17;;;;;;;12.52;2.67;;;15.20;88.80;;;;;;4989251;28;20491;-82
2023/04/30 08:50:44;;;;;;;9.60;2.92;;;15.30;90.80;;;;;;4973334;28;20062;-82
2023/04/30 08:53:12;;;;;;;8.25;2.50;;;14.70;91.10;;;;;;4973308;28;20042;-82
2023/04/30 08:55:39;;;;;;;9.95;2.88;;;14.80;90.10;;;;;;4988695;28;20142;-82
2023/04/30 08:58:05;;;;;;;11.63;3.05;;;14.50;91.50;;;;;;4989884;28;20047;-83
2023/04/30 09:00:33;;;;;;;10.90;2.85;;;14.80;90.60;;;;;;4960697;28;20078;-83
2023/04/30 09:03:00;;;;;;;7.93;2.80;;;14.90;90.60;;;;;;4992763;28;20491;-82
2023/04/30 09:05:25;;;;;;;10.73;3.03;;;14.50;90.00;;;;;;4976560;28;20051;-82
2023/04/30 09:07:51;;;;;;;9.68;2.88;;;14.10;91.90;;;;;;5009152;28;20047;-82
2023/04/30 09:10:20;;;;;;;7.53;2.42;;;14.00;91.80;;;;;;4992975;28;20484;-82
2023/04/30 09:13:09;;;;;;;8.85;2.58;;;14.20;90.30;;;;;;4992801;28;20448;-82
2023/04/30 09:15:37;;;;;;;10.65;3.17;;;14.30;93.00;;;;;;4976255;28;20402;-83
2023/04/30 09:18:16;;;;;;;10.95;3.20;;;14.50;93.90;;;;;;4992570;28;20085;-83
2023/04/30 09:21:00;;;;;;;9.27;3.20;;;14.80;92.90;;;;;;4976244;28;20398;-83
2023/04/30 09:23:29;;;;;;;9.07;3.10;;;14.70;92.70;;;;;;4992487;28;20431;-82
2023/04/30 09:25:55;;;;;;;9.48;3.15;;;14.70;91.40;;;;;;4992348;28;20058;-83
2023/04/30 09:28:26;;;;;;;10.50;3.10;;;14.70;93.90;;;;;;4992585;28;20057;-82
2023/04/30 09:30:52;;;;;;;9.27;2.83;;;15.00;93.10;;;;;;4992414;28;20278;-83
2023/04/30 09:33:19;;;;;;;10.38;3.17;;;15.30;90.60;;;;;;4992508;28;20054;-82
2023/04/30 09:35:45;;;;;;;9.95;2.80;;;15.30;90.80;;;;;;4976194;28;20057;-82
2023/04/30 09:38:30;;;;;;;8.43;2.60;;;15.10;90.00;;;;;;4976181;28;20046;-82
2023/04/30 09:41:00;;;;;;;9.50;2.80;;;15.20;90.70;;;;;;4992280;28;20074;-83
2023/04/30 09:43:30;;;;;;;9.95;3.05;;;15.30;89.00;;;;;;4975981;28;20046;-82
2023/04/30 09:46:00;;;;;;;10.57;2.95;;;15.30;90.00;;;;;;4991938;28;20047;-83
2023/04/30 09:48:29;;;;;;;9.82;3.30;;;15.40;90.10;;;;;;4975946;28;20618;-83
2023/04/30 09:50:55;;;;;;;8.35;2.90;;;15.50;89.40;;;;;;4992091;28;20035;-83
2023/04/30 09:53:22;;;;;;;9.50;2.75;;;15.70;88.80;;;;;;4991980;28;20093;-83
2023/04/30 09:55:49;;;;;;;9.05;2.70;;;16.10;90.30;;;;;;5007685;28;20098;-82
2023/04/30 09:58:16;;;;;;;9.13;2.65;;;16.30;87.40;;;;;;4975705;28;20054;-84
2023/04/30 10:00:44;;;;;;;10.57;3.10;;;16.50;86.60;;;;;;4991842;28;20057;-83
2023/04/30 10:03:15;;;;;;;11.68;3.10;;;16.50;82.50;;;;;;4975617;28;20110;-83
2023/04/30 10:05:46;;;;;;;9.77;3.17;;;16.60;82.00;;;;;;4991754;28;20043;-83
2023/04/30 10:08:23;;;;;;;7.97;2.63;;;16.50;82.60;;;;;;4991512;28;20553;-83
2023/04/30 10:10:53;;;;;;;8.60;2.83;;;16.40;81.50;;;;;;4991777;28;20062;-83
2023/04/30 10:13:19;;;;;;;9.93;3.25;;;16.30;80.10;;;;;;4991465;28;20051;-83
2023/04/30 10:15:50;;;;;;;10.30;3.45;;;16.30;83.10;;;;;;4991594;28;20051;-82
2023/04/30 10:18:28;;;;;;;9.48;2.90;;;16.40;83.60;;;;;;4991102;28;20518;-83
2023/04/30 10:20:55;;;;;;;7.55;2.90;;;16.80;85.90;;;;;;4975102;28;20062;-83
2023/04/30 10:23:22;;;;;;;7.10;2.75;;;16.90;78.90;;;;;;4991486;28;20546;-82
2023/04/30 10:25:49;;;;;;;10.07;3.00;;;16.40;79.40;;;;;;4991203;28;20475;-83
2023/04/30 10:28:15;;;;;;;9.05;3.00;;;16.40;78.80;;;;;;4975286;28;20047;-83
2023/04/30 10:30:44;;;;;;;11.73;3.35;;;16.40;81.70;;;;;;4990934;28;20054;-82
2023/04/30 10:33:27;;;;;;;9.35;2.58;;;16.30;80.80;;;;;;4991463;28;20055;-83
2023/04/30 10:36:00;;;;;;;7.38;2.85;;;16.30;83.50;;;;;;4974484;28;20206;-83
2023/04/30 10:38:30;;;;;;;7.80;3.08;;;16.60;80.50;;;;;;4991442;28;20395;-83
2023/04/30 10:41:00;;;;;;;9.38;3.30;;;16.70;83.60;;;;;;4975024;28;20047;-83
2023/04/30 10:43:26;;;;;;;8.82;3.13;;;16.80;78.20;;;;;;4991066;28;20058;-83
2023/04/30 10:45:52;;;;;;;8.68;3.28;;;17.00;82.30;;;;;;4990742;28;20070;-83
2023/04/30 10:48:25;;;;;;;7.03;2.92;;;17.00;81.50;;;;;;4990937;28;20109;-83
2023/04/30 10:50:56;;;;;;;8.82;2.95;;;16.60;81.20;;;;;;4974784;28;20043;-84
2023/04/30 10:53:25;;;;;;;8.80;3.05;;;16.40;82.40;;;;;;4990948;28;20487;-83
2023/04/30 10:56:07;;;;;;;9.43;2.92;;;16.60;79.70;;;;;;4990040;28;20138;-83
2023/04/30 10:58:36;;;;;;;9.25;2.90;;;16.30;82.80;;;;;;4974667;28;20054;-83
2023/04/30 11:01:11;;;;;;;7.85;3.13;;;16.50;82.00;;;;;;4974278;28;20061;-83
2023/04/30 11:03:39;;;;;;;8.93;2.80;;;16.40;81.00;;;;;;4990404;28;20051;-83
2023/04/30 11:06:14;;;;;;;8.52;2.80;;;16.40;81.70;;;;;;4974320;28;20047;-83
2023/04/30 11:08:47;;;;;;;8.32;2.90;;;16.50;79.10;;;;;;4974288;28;20047;-83
2023/04/30 11:11:22;;;;;;;7.38;3.10;;;16.50;85.00;;;;;;4990693;28;20141;-83
2023/04/30 11:13:59;;;;;;;8.98;3.10;;;16.60;82.60;;;;;;4990595;28;20047;-83
2023/04/30 11:16:30;;;;;;;7.90;3.10;;;16.80;84.70;;;;;;4974370;28;20152;-85
2023/04/30 11:19:12;;;;;;;7.38;2.90;;;16.90;78.30;;;;;;4990452;28;20491;-84
2023/04/30 11:22:01;;;;;;;7.63;2.75;;;16.80;83.10;;;;;;4989867;28;20494;-84
2023/04/30 11:24:49;;;;;;;5.85;2.60;;;16.80;83.30;;;;;;4990408;28;20101;-84
2023/04/30 11:27:22;;;;;;;8.13;2.78;;;16.80;78.70;;;;;;4990114;28;20394;-85
2023/04/30 11:29:50;;;;;;;8.43;3.15;;;16.90;81.10;;;;;;4990104;28;20059;-84
2023/04/30 11:32:18;;;;;;;8.70;2.67;;;17.00;79.10;;;;;;4973988;28;20483;-84
2023/04/30 11:34:44;;;;;;;9.10;2.83;;;16.90;79.40;;;;;;4974260;28;20064;-85
2023/04/30 11:37:13;;;;;;;7.93;3.40;;;16.90;80.00;;;;;;4990008;28;20117;-84
2023/04/30 11:39:40;;;;;;;10.00;2.90;;;16.90;79.50;;;;;;4974202;28;20117;-85
2023/04/30 11:42:07;;;;;;;6.75;2.80;;;16.90;79.90;;;;;;4973419;28;20495;-86
2023/04/30 11:44:33;;;;;;;8.90;3.00;;;17.00;78.70;;;;;;4973492;28;20108;-85
2023/04/30 11:47:00;;;;;;;8.05;2.90;;;16.80;79.50;;;;;;4973603;28;20125;-85
2023/04/30 11:49:26;;;;;;;6.38;2.80;;;17.00;78.40;;;;;;4990317;28;20193;-86
2023/04/30 11:51:52;;;;;;;7.60;2.83;;;17.00;76.40;;;;;;4973433;28;20055;-87
2023/04/30 11:54:18;;;;;;;9.40;3.30;;;17.00;78.20;;;;;;4990054;28;20450;-85
2023/04/30 11:56:48;;;;;;;9.18;3.00;;;16.90;77.60;;;;;;4973498;28;20050;-85
2023/04/30 11:59:15;;;;;;;8.30;3.20;;;17.00;77.30;;;;;;4989704;28;20094;-85
2023/04/30 12:01:44;;;;;;;8.70;2.83;;;16.70;76.10;;;;;;4989998;28;20043;-86
2023/04/30 12:04:10;;;;;;;7.95;3.03;;;16.60;79.50;;;;;;4973811;28;20111;-86
2023/04/30 12:06:36;;;;;;;7.80;3.00;;;16.70;82.80;;;;;;5005794;28;20050;-85
2023/04/30 12:09:12;;;;;;;7.72;2.70;;;17.00;82.60;;;;;;4989306;28;20050;-85
2023/04/30 12:11:38;;;;;;;8.75;3.30;;;17.00;81.40;;;;;;4989936;28;20054;-85
2023/04/30 12:14:10;;;;;;;8.27;3.20;;;17.00;80.80;;;;;;4989846;28;20061;-86
2023/04/30 12:16:40;;;;;;;7.43;3.17;;;17.10;79.00;;;;;;4990022;28;20055;-85
2023/04/30 12:19:06;;;;;;;7.50;3.20;;;17.10;76.70;;;;;;4989217;28;20047;-85
2023/04/30 12:21:33;;;;;;;8.68;2.97;;;16.90;78.70;;;;;;4989902;28;20057;-85
2023/04/30 12:23:58;;;;;;;6.70;2.88;;;16.90;78.90;;;;;;4957304;28;20047;-85
2023/04/30 12:26:32;;;;;;;8.43;2.88;;;16.90;78.70;;;;;;4989150;28;20054;-84
2023/04/30 12:28:58;;;;;;;6.32;2.30;;;16.90;80.40;;;;;;4989768;28;20058;-85
2023/04/30 12:31:24;;;;;;;6.97;2.40;;;16.60;79.10;;;;;;5006112;28;20435;-86
2023/04/30 12:33:55;;;;;;;5.65;2.40;;;16.80;79.70;;;;;;4991470;28;20447;-85
2023/04/30 12:36:21;;;;;;;6.63;2.58;;;16.50;78.90;;;;;;4977009;28;20495;-85
2023/04/30 12:38:46;;;;;;;5.65;2.35;;;16.60;76.80;;;;;;4976984;28;20086;-84
2023/04/30 12:41:14;;;;;;;5.40;2.10;;;16.80;79.50;;;;;;4976989;28;20039;-85
2023/04/30 12:43:40;;;;;;;6.05;2.55;;;16.90;79.50;;;;;;4977287;28;20054;-86
2023/04/30 12:46:05;;;;;;;6.53;2.00;;;17.10;77.60;;;;;;4993108;28;20080;-85
2023/04/30 12:48:43;;;;;;;5.45;2.10;;;17.00;76.40;;;;;;4993479;28;20051;-86